createdAt,value
2023-01-20T00:02:41.266Z,38.87
2023-01-20T00:05:26.465Z,39.27
2023-01-20T00:08:11.278Z,39.27
2023-01-20T00:10:57.059Z,41.00
2023-01-20T00:13:42.300Z,39.43
2023-01-20T00:16:28.165Z,38.60
2023-01-20T00:19:14.357Z,39.03
2023-01-20T00:21:59.751Z,38.53
2023-01-20T00:24:44.848Z,38.03
2023-01-20T00:27:29.699Z,38.73
2023-01-20T00:30:14.650Z,38.53
2023-01-20T00:32:59.436Z,39.17
2023-01-20T00:35:44.420Z,39.47
2023-01-20T00:38:29.615Z,38.57
2023-01-20T00:41:15.552Z,38.87
2023-01-20T00:44:00.421Z,36.93
2023-01-20T00:46:45.456Z,38.83
2023-01-20T00:49:30.805Z,39.63
2023-01-20T00:52:16.087Z,41.57
2023-01-20T00:55:00.958Z,39.80
2023-01-20T00:57:46.249Z,41.03
2023-01-20T01:00:31.567Z,42.60
2023-01-20T01:03:18.495Z,41.87
2023-01-20T01:06:12.049Z,41.87
2023-01-20T01:08:57.598Z,41.63
2023-01-20T01:11:43.034Z,40.70
2023-01-20T01:14:30.794Z,41.90
2023-01-20T01:17:15.714Z,41.20
2023-01-20T01:20:00.612Z,39.50
2023-01-20T01:22:45.409Z,39.60
2023-01-20T01:25:30.519Z,39.27
2023-01-20T01:28:15.737Z,39.93
2023-01-20T01:31:02.732Z,39.30
2023-01-20T01:33:48.656Z,39.37
2023-01-20T01:36:33.460Z,39.37
2023-01-20T01:39:18.614Z,40.30
2023-01-20T01:42:08.763Z,42.43
2023-01-20T01:45:12.402Z,40.93
2023-01-20T01:48:18.779Z,41.73
2023-01-20T01:51:30.175Z,38.80
2023-01-20T01:54:18.378Z,39.63
2023-01-20T01:57:07.328Z,40.23
2023-01-20T01:59:52.682Z,38.67
2023-01-20T02:02:38.273Z,41.17
2023-01-20T02:05:25.483Z,39.93
2023-01-20T02:08:11.192Z,42.53
2023-01-20T02:10:56.212Z,42.27
2023-01-20T02:13:41.577Z,45.43
2023-01-20T02:16:32.138Z,44.37
2023-01-20T02:19:49.833Z,42.43
2023-01-20T02:23:13.247Z,45.17
2023-01-20T02:26:06.987Z,42.63
2023-01-20T02:29:22.937Z,44.37
2023-01-20T02:32:23.456Z,43.10
2023-01-20T02:35:20.073Z,44.50
2023-01-20T02:38:14.685Z,43.47
2023-01-20T02:41:06.148Z,44.50
2023-01-20T02:44:00.381Z,42.87
2023-01-20T02:47:12.271Z,44.87
2023-01-20T02:50:21.341Z,44.70
2023-01-20T02:53:08.454Z,41.33
2023-01-20T02:55:54.346Z,44.23
2023-01-20T02:58:48.845Z,45.47
2023-01-20T03:01:46.290Z,44.13
2023-01-20T03:04:40.570Z,42.90
2023-01-20T03:07:29.432Z,45.33
2023-01-20T03:10:19.249Z,41.90
2023-01-20T03:13:16.630Z,40.90
2023-01-20T03:16:10.010Z,39.97
2023-01-20T03:18:55.388Z,39.77
2023-01-20T03:21:40.566Z,38.90
2023-01-20T03:24:29.318Z,37.47
2023-01-20T03:27:14.263Z,38.53
2023-01-20T03:29:59.368Z,41.33
2023-01-20T03:32:48.346Z,42.37
2023-01-20T03:35:34.144Z,44.53
2023-01-20T03:38:19.574Z,44.13
2023-01-20T03:41:13.789Z,42.90
2023-01-20T03:44:31.179Z,41.47
2023-01-20T03:47:31.254Z,41.33
2023-01-20T03:50:16.044Z,42.00
2023-01-20T03:53:36.269Z,40.07
2023-01-20T03:56:36.564Z,41.57
2023-01-20T03:59:23.422Z,40.33
2023-01-20T04:02:10.348Z,41.73
2023-01-20T04:04:56.814Z,40.70
2023-01-20T04:07:45.132Z,41.23
2023-01-20T04:10:32.583Z,41.17
2023-01-20T04:13:17.638Z,41.37
2023-01-20T04:16:09.059Z,40.73
2023-01-20T04:18:54.554Z,40.93
2023-01-20T04:21:45.208Z,40.40
2023-01-20T04:24:38.054Z,41.37
2023-01-20T04:27:23.389Z,39.90
2023-01-20T04:30:09.835Z,41.07
2023-01-20T04:32:55.018Z,40.90
2023-01-20T04:35:39.979Z,40.83
2023-01-20T04:38:24.977Z,39.93
2023-01-20T04:41:11.537Z,41.37
2023-01-20T04:43:56.693Z,39.17
2023-01-20T04:46:41.565Z,40.37
2023-01-20T04:49:27.017Z,38.90
2023-01-20T04:52:11.861Z,38.83
2023-01-20T04:54:56.731Z,38.70
2023-01-20T04:57:42.177Z,35.93
2023-01-20T05:00:27.604Z,37.30
2023-01-20T05:03:12.766Z,39.10
2023-01-20T05:05:57.581Z,37.27
2023-01-20T05:08:42.872Z,38.53
2023-01-20T05:11:28.390Z,37.33
2023-01-20T05:14:13.893Z,37.17
2023-01-20T05:16:59.054Z,36.73
2023-01-20T05:19:43.859Z,37.70
2023-01-20T05:22:29.311Z,37.20
2023-01-20T05:25:14.770Z,35.37
2023-01-20T05:27:59.953Z,36.60
2023-01-20T05:30:44.904Z,35.43
2023-01-20T05:33:30.257Z,34.80
2023-01-20T05:36:15.730Z,35.37
2023-01-20T05:39:00.591Z,37.03
2023-01-20T05:41:46.444Z,36.83
2023-01-20T05:44:31.576Z,36.23
2023-01-20T05:47:16.764Z,36.20
2023-01-20T05:50:02.068Z,37.63
2023-01-20T05:52:49.313Z,37.37
2023-01-20T05:55:34.328Z,37.87
2023-01-20T05:58:19.035Z,37.07
2023-01-20T06:01:09.980Z,37.50
2023-01-20T06:03:55.315Z,39.27
2023-01-20T06:06:40.627Z,37.53
2023-01-20T06:09:25.994Z,38.13
2023-01-20T06:12:11.064Z,38.33
2023-01-20T06:14:55.942Z,39.50
2023-01-20T06:17:41.397Z,37.37
2023-01-20T06:20:26.866Z,37.70
2023-01-20T06:23:11.823Z,36.80
2023-01-20T06:26:10.538Z,40.07
2023-01-20T06:28:59.520Z,38.20
2023-01-20T06:31:44.650Z,38.00
2023-01-20T06:34:29.895Z,38.13
2023-01-20T06:37:14.823Z,38.57
2023-01-20T06:40:00.159Z,38.47
2023-01-20T06:42:44.978Z,37.17
2023-01-20T06:45:30.606Z,36.90
2023-01-20T06:48:15.474Z,37.30
2023-01-20T06:51:04.371Z,37.80
2023-01-20T06:53:49.677Z,37.43
2023-01-20T06:56:34.700Z,37.83
2023-01-20T06:59:19.872Z,37.17
2023-01-20T07:02:06.113Z,36.23
2023-01-20T07:04:52.311Z,40.00
2023-01-20T07:07:37.331Z,43.13
2023-01-20T07:10:22.221Z,38.77
2023-01-20T07:13:07.159Z,39.70
2023-01-20T07:15:53.140Z,37.77
2023-01-20T07:18:38.957Z,37.33
2023-01-20T07:21:26.424Z,37.90
2023-01-20T07:24:11.755Z,38.17
2023-01-20T07:26:56.924Z,38.37
2023-01-20T07:29:42.025Z,40.83
2023-01-20T07:32:30.526Z,38.93
2023-01-20T07:35:16.453Z,38.70
2023-01-20T07:38:01.610Z,37.53
2023-01-20T07:40:47.088Z,37.07
2023-01-20T07:43:32.945Z,37.40
2023-01-20T07:46:19.380Z,37.73
2023-01-20T07:49:04.702Z,38.43
2023-01-20T07:51:50.264Z,36.90
2023-01-20T07:54:35.487Z,37.93
2023-01-20T07:57:20.435Z,43.30
2023-01-20T08:00:06.492Z,36.47
2023-01-20T08:02:51.750Z,37.90
2023-01-20T08:05:36.529Z,38.80
2023-01-20T08:08:23.102Z,37.00
2023-01-20T08:11:10.311Z,39.60
2023-01-20T08:13:55.659Z,38.27
2023-01-20T08:16:40.545Z,39.77
2023-01-20T08:19:29.036Z,39.10
2023-01-20T08:22:14.097Z,39.00
2023-01-20T08:25:02.277Z,37.73
2023-01-20T08:27:48.540Z,36.77
2023-01-20T08:30:33.746Z,37.53
2023-01-20T08:33:19.275Z,36.63
2023-01-20T08:36:16.403Z,36.67
2023-01-20T08:39:03.544Z,37.57
2023-01-20T08:41:50.147Z,37.93
2023-01-20T08:44:35.444Z,36.57
2023-01-20T08:47:20.298Z,35.77
2023-01-20T08:50:07.084Z,34.73
2023-01-20T08:52:52.446Z,35.00
2023-01-20T08:55:37.759Z,34.27
2023-01-20T08:58:25.201Z,35.03
2023-01-20T09:01:23.102Z,33.33
2023-01-20T09:04:08.206Z,30.27
2023-01-20T09:06:53.142Z,30.07
2023-01-20T09:09:39.090Z,29.77
2023-01-20T09:12:24.386Z,29.20
2023-01-20T09:15:11.549Z,32.47
2023-01-20T09:17:56.664Z,30.80
2023-01-20T09:20:41.731Z,30.37
2023-01-20T09:23:26.770Z,31.47
2023-01-20T09:26:13.285Z,30.93
2023-01-20T09:28:59.747Z,29.30
2023-01-20T09:31:49.204Z,29.60
2023-01-20T09:34:34.648Z,28.67
2023-01-20T09:37:19.762Z,28.90
2023-01-20T09:40:05.621Z,28.37
2023-01-20T09:43:12.211Z,28.10
2023-01-20T09:46:20.247Z,28.90
2023-01-20T09:49:17.782Z,28.77
2023-01-20T09:52:15.506Z,28.93
2023-01-20T09:55:21.424Z,27.33
2023-01-20T09:58:27.970Z,25.77
2023-01-20T10:01:16.337Z,27.70
2023-01-20T10:04:23.194Z,27.97
2023-01-20T10:07:33.602Z,33.00
2023-01-20T10:10:35.812Z,35.03
2023-01-20T10:13:30.109Z,33.13
2023-01-20T10:16:23.508Z,31.43
2023-01-20T10:19:21.097Z,31.37
2023-01-20T10:22:12.367Z,31.83
2023-01-20T10:25:17.435Z,29.33
2023-01-20T10:28:14.095Z,28.73
2023-01-20T10:31:05.157Z,29.67
2023-01-20T10:33:53.918Z,27.70
2023-01-20T10:36:44.087Z,26.60
2023-01-20T10:39:51.504Z,27.20
2023-01-20T10:42:36.608Z,27.77
2023-01-20T10:45:29.679Z,26.07
2023-01-20T10:48:56.008Z,25.53
2023-01-20T10:51:46.243Z,25.30
2023-01-20T10:54:50.477Z,25.57
2023-01-20T10:57:36.280Z,24.53
2023-01-20T11:00:32.364Z,23.10
2023-01-20T11:03:23.090Z,24.63
2023-01-20T11:06:19.433Z,22.40
2023-01-20T11:09:29.437Z,23.77
2023-01-20T11:12:17.301Z,21.80
2023-01-20T11:15:14.298Z,19.43
2023-01-20T11:18:14.477Z,21.30
2023-01-20T11:21:05.784Z,19.03
2023-01-20T11:23:52.730Z,18.50
2023-01-20T11:26:38.330Z,18.00
2023-01-20T11:29:28.353Z,15.77
2023-01-20T11:32:32.412Z,15.60
2023-01-20T11:35:24.026Z,17.03
2023-01-20T11:38:23.973Z,13.97
2023-01-20T11:41:19.954Z,15.57
2023-01-20T11:44:06.501Z,15.23
2023-01-20T11:46:51.772Z,15.40
2023-01-20T11:49:37.246Z,15.27
2023-01-20T11:52:22.551Z,15.03
2023-01-20T11:55:18.016Z,13.67
2023-01-20T11:58:04.032Z,13.20
2023-01-20T12:00:51.480Z,14.57
2023-01-20T12:03:39.612Z,13.10
2023-01-20T12:06:28.591Z,12.83
2023-01-20T12:09:19.881Z,14.87
2023-01-20T12:12:15.963Z,12.63
2023-01-20T12:15:18.147Z,12.83
2023-01-20T12:18:23.203Z,13.63
2023-01-20T12:21:13.250Z,13.73
2023-01-20T12:24:42.068Z,15.90
2023-01-20T12:27:30.101Z,13.77
2023-01-20T12:30:54.086Z,13.43
2023-01-20T12:33:48.050Z,13.17
2023-01-20T12:37:11.461Z,14.27
2023-01-20T12:40:11.197Z,14.57
2023-01-20T12:43:10.559Z,14.53
2023-01-20T12:46:07.554Z,13.20
2023-01-20T12:49:05.149Z,13.77
2023-01-20T12:52:10.906Z,15.10
2023-01-20T12:55:22.032Z,15.10
2023-01-20T12:58:17.005Z,16.23
2023-01-20T13:01:24.125Z,15.77
2023-01-20T13:04:39.957Z,15.90
2023-01-20T13:07:36.404Z,15.47
2023-01-20T13:10:51.668Z,15.17
2023-01-20T13:13:48.039Z,15.20
2023-01-20T13:16:59.812Z,13.17
2023-01-20T13:19:45.672Z,9.70
2023-01-20T13:22:31.330Z,10.67
2023-01-20T13:25:17.164Z,12.67
2023-01-20T13:28:02.747Z,11.50
2023-01-20T13:30:49.904Z,11.33
2023-01-20T13:33:40.380Z,12.67
2023-01-20T13:36:25.843Z,12.70
2023-01-20T13:39:29.706Z,12.67
2023-01-20T13:42:29.903Z,13.90
2023-01-20T13:45:16.591Z,12.90
2023-01-20T13:48:22.250Z,14.03
2023-01-20T13:51:26.597Z,12.97
2023-01-20T13:54:23.878Z,12.53
2023-01-20T13:57:21.517Z,13.77
2023-01-20T14:00:12.210Z,12.83
2023-01-20T14:02:57.435Z,13.43
2023-01-20T14:05:42.845Z,13.63
2023-01-20T14:08:31.044Z,13.10
2023-01-20T14:11:22.017Z,13.00
2023-01-20T14:14:14.779Z,13.77
2023-01-20T14:17:01.916Z,24.70
2023-01-20T14:19:55.379Z,16.43
2023-01-20T14:22:40.810Z,16.50
2023-01-20T14:25:26.855Z,16.23
2023-01-20T14:28:19.233Z,16.47
2023-01-20T14:31:16.677Z,16.90
2023-01-20T14:34:31.219Z,17.03
2023-01-20T14:37:37.652Z,16.83
2023-01-20T14:40:29.917Z,16.03
2023-01-20T14:43:18.293Z,16.27
2023-01-20T14:46:03.959Z,15.23
2023-01-20T14:48:50.412Z,16.63
2023-01-20T14:51:35.588Z,16.77
2023-01-20T14:54:27.446Z,16.63
2023-01-20T14:57:29.387Z,16.50
2023-01-20T15:00:28.026Z,16.80
2023-01-20T15:03:17.984Z,16.80
2023-01-20T15:06:19.150Z,17.40
2023-01-20T15:09:24.616Z,17.00
2023-01-20T15:12:39.025Z,72.13
2023-01-20T15:15:27.609Z,20.43
2023-01-20T15:18:20.060Z,18.90
2023-01-20T15:21:17.200Z,16.83
2023-01-20T15:24:34.920Z,18.03
2023-01-20T15:27:32.024Z,18.63
2023-01-20T15:30:20.580Z,19.20
2023-01-20T15:33:08.998Z,16.90
2023-01-20T15:35:57.023Z,17.00
2023-01-20T15:38:42.281Z,18.67
2023-01-20T15:41:27.407Z,18.33
2023-01-20T15:44:12.300Z,16.80
2023-01-20T15:46:58.225Z,16.70
2023-01-20T15:49:43.341Z,17.60
2023-01-20T15:52:28.512Z,19.23
2023-01-20T15:55:15.930Z,18.30
2023-01-20T15:58:01.243Z,19.63
2023-01-20T16:00:46.152Z,19.53
2023-01-20T16:03:31.607Z,21.13
2023-01-20T16:06:18.692Z,20.50
2023-01-20T16:09:15.726Z,28.23
2023-01-20T16:12:00.522Z,27.83
2023-01-20T16:14:46.150Z,26.87
2023-01-20T16:17:32.982Z,27.53
2023-01-20T16:20:21.709Z,29.40
2023-01-20T16:23:07.209Z,26.33
2023-01-20T16:25:51.999Z,29.50
2023-01-20T16:28:37.094Z,25.73
2023-01-20T16:31:23.506Z,27.53
2023-01-20T16:34:08.470Z,29.30
2023-01-20T16:36:53.293Z,29.67
2023-01-20T16:39:38.143Z,32.73
2023-01-20T16:42:23.091Z,30.67
2023-01-20T16:45:28.764Z,29.80
2023-01-20T16:48:14.064Z,28.63
2023-01-20T16:50:59.644Z,31.07
2023-01-20T16:53:45.187Z,30.50
2023-01-20T16:56:31.817Z,32.60
2023-01-20T16:59:16.802Z,31.27
2023-01-20T17:02:01.663Z,32.33
2023-01-20T17:04:47.272Z,33.20
2023-01-20T17:07:32.563Z,32.10
2023-01-20T17:10:18.511Z,42.60
2023-01-20T17:13:03.853Z,40.87
2023-01-20T17:15:49.009Z,31.30
2023-01-20T17:18:34.371Z,28.53
2023-01-20T17:21:20.805Z,30.43
2023-01-20T17:24:06.297Z,31.93
2023-01-20T17:26:51.355Z,31.17
2023-01-20T17:29:36.655Z,28.97
2023-01-20T17:32:21.468Z,28.43
2023-01-20T17:35:06.942Z,30.83
2023-01-20T17:37:52.284Z,29.70
2023-01-20T17:40:37.094Z,29.53
2023-01-20T17:43:22.599Z,30.00
2023-01-20T17:46:14.064Z,31.43
2023-01-20T17:49:00.519Z,37.47
2023-01-20T17:51:45.563Z,36.60
2023-01-20T17:54:30.761Z,34.37
2023-01-20T17:57:15.728Z,30.17
2023-01-20T18:00:00.662Z,30.43
2023-01-20T18:02:45.973Z,29.60
2023-01-20T18:05:31.077Z,29.40
2023-01-20T18:08:16.458Z,29.70
2023-01-20T18:11:06.031Z,31.93
2023-01-20T18:13:53.782Z,45.90
2023-01-20T18:16:40.836Z,56.30
2023-01-20T18:19:26.269Z,52.63
2023-01-20T18:22:11.228Z,45.17
2023-01-20T18:24:56.682Z,42.03
2023-01-20T18:27:42.066Z,45.70
2023-01-20T18:30:27.606Z,41.67
2023-01-20T18:33:13.116Z,37.13
2023-01-20T18:35:58.292Z,36.57
2023-01-20T18:38:48.656Z,41.90
2023-01-20T18:41:37.412Z,47.50
2023-01-20T18:44:22.854Z,38.20
2023-01-20T18:47:08.009Z,35.63
2023-01-20T18:49:52.879Z,39.87
2023-01-20T18:52:38.333Z,39.37
2023-01-20T18:55:23.769Z,38.03
2023-01-20T18:58:08.508Z,39.10
2023-01-20T19:00:53.546Z,38.93
2023-01-20T19:03:39.095Z,40.30
2023-01-20T19:06:26.673Z,42.93
2023-01-20T19:09:13.082Z,43.17
2023-01-20T19:11:58.273Z,41.40
2023-01-20T19:14:43.459Z,41.13
2023-01-20T19:17:28.361Z,42.40
2023-01-20T19:20:13.267Z,50.60
2023-01-20T19:22:58.377Z,51.87
2023-01-20T19:25:43.076Z,50.93
2023-01-20T19:28:28.178Z,49.90
2023-01-20T19:31:19.250Z,44.63
2023-01-20T19:34:05.802Z,43.33
2023-01-20T19:36:50.767Z,45.30
2023-01-20T19:39:35.761Z,45.43
2023-01-20T19:42:21.257Z,41.40
2023-01-20T19:45:07.288Z,40.77
2023-01-20T19:47:52.487Z,41.07
2023-01-20T19:50:37.860Z,42.07
2023-01-20T19:53:23.269Z,42.07
2023-01-20T19:56:16.787Z,40.93
2023-01-20T19:59:01.855Z,42.07
2023-01-20T20:01:47.350Z,45.17
2023-01-20T20:04:32.690Z,47.43
2023-01-20T20:07:17.683Z,43.33
2023-01-20T20:10:03.868Z,45.00
2023-01-20T20:12:48.879Z,44.17
2023-01-20T20:15:33.636Z,44.53
2023-01-20T20:18:19.123Z,43.33
2023-01-20T20:21:04.390Z,43.80
2023-01-20T20:23:55.225Z,46.60
2023-01-20T20:26:41.842Z,47.43
2023-01-20T20:29:27.193Z,49.63
2023-01-20T20:32:12.239Z,47.87
2023-01-20T20:34:57.682Z,49.47
2023-01-20T20:37:42.541Z,48.17
2023-01-20T20:40:27.334Z,46.63
2023-01-20T20:43:12.675Z,48.83
2023-01-20T20:46:02.346Z,49.60
2023-01-20T20:48:47.353Z,53.20
2023-01-20T20:51:34.456Z,53.87
2023-01-20T20:54:19.540Z,52.40
2023-01-20T20:57:05.000Z,46.70
2023-01-20T20:59:58.885Z,50.23
2023-01-20T21:02:44.942Z,49.27
2023-01-20T21:05:30.089Z,47.90
2023-01-20T21:08:16.135Z,49.13
2023-01-20T21:11:02.954Z,47.60
2023-01-20T21:13:48.092Z,46.63
2023-01-20T21:16:34.211Z,42.97
2023-01-20T21:19:19.535Z,45.13
2023-01-20T21:22:04.616Z,43.57
2023-01-20T21:24:49.909Z,47.37
2023-01-20T21:27:35.367Z,47.10
2023-01-20T21:30:21.008Z,44.40
2023-01-20T21:33:06.037Z,42.93
2023-01-20T21:35:51.502Z,47.07
2023-01-20T21:38:36.945Z,47.47
2023-01-20T21:41:22.210Z,40.17
2023-01-20T21:44:11.914Z,40.47
2023-01-20T21:47:02.055Z,41.93
2023-01-20T21:49:47.126Z,42.63
2023-01-20T21:52:32.692Z,44.33
2023-01-20T21:55:19.399Z,44.53
2023-01-20T21:58:04.409Z,48.50
2023-01-20T22:00:54.599Z,48.50
2023-01-20T22:03:40.089Z,46.53
2023-01-20T22:06:25.433Z,44.10
2023-01-20T22:09:10.684Z,42.30
2023-01-20T22:11:55.787Z,46.00
2023-01-20T22:14:41.032Z,45.73
2023-01-20T22:17:26.447Z,42.40
2023-01-20T22:20:12.091Z,39.07
2023-01-20T22:22:57.480Z,37.53
2023-01-20T22:25:42.798Z,40.33
2023-01-20T22:28:32.123Z,42.23
2023-01-20T22:31:19.290Z,39.97
2023-01-20T22:34:04.378Z,57.33
2023-01-20T22:36:49.504Z,39.67
2023-01-20T22:39:34.967Z,38.40
2023-01-20T22:42:19.925Z,39.00
2023-01-20T22:45:06.050Z,38.43
2023-01-20T22:47:55.084Z,37.03
2023-01-20T22:50:40.184Z,38.70
2023-01-20T22:53:25.596Z,38.33
2023-01-20T22:56:12.918Z,38.53
2023-01-20T22:58:59.260Z,39.57
2023-01-20T23:01:44.721Z,38.87
2023-01-20T23:04:29.627Z,38.30
2023-01-20T23:07:15.047Z,38.17
2023-01-20T23:09:59.986Z,40.50
2023-01-20T23:12:45.424Z,41.60
2023-01-20T23:15:30.746Z,38.87
2023-01-20T23:18:16.152Z,36.00
2023-01-20T23:21:01.381Z,36.70
2023-01-20T23:23:47.175Z,36.07
2023-01-20T23:26:32.570Z,36.63
2023-01-20T23:29:17.784Z,39.03
2023-01-20T23:32:03.917Z,39.43
2023-01-20T23:34:49.130Z,37.87
2023-01-20T23:37:34.351Z,37.53
2023-01-20T23:40:19.436Z,36.30
2023-01-20T23:43:04.725Z,38.50
2023-01-20T23:45:50.056Z,36.50
2023-01-20T23:48:36.169Z,37.47
2023-01-20T23:51:21.199Z,37.80
2023-01-20T23:54:06.266Z,36.80
2023-01-20T23:56:51.074Z,38.23
2023-01-20T23:59:35.933Z,37.47
